Time;durP1;ratioP1;P1;durP2;ratioP2;P2;SDS_P1;SDS_P2;PMS_P1;PMS_P2;Temp;Humidity;BMP_temperature;BMP_pressure;BME280_temperature;BME280_humidity;BME280_pressure;Samples;Min_cycle;Max_cycle;Signal;HPM_P1;HPM_P2
2022/12/17 13:06:36;;;;;;;;;36.75;30.00;;;;;5.66;100.00;102182.72;5053677;28;45980;-74
2022/12/17 13:09:21;;;;;;;;;42.00;35.50;;;;;5.58;100.00;102182.31;5051283;28;45513;-76
2022/12/17 13:12:01;;;;;;;;;37.50;30.25;;;;;5.48;100.00;102173.06;5053366;28;45506;-75
2022/12/17 13:14:57;;;;;;;;;45.75;32.50;;;;;5.37;100.00;102173.31;5054898;28;45601;-74
2022/12/17 13:17:27;;;;;;;;;33.25;27.25;;;;;5.26;100.00;102168.38;5055207;28;45532;-74
2022/12/17 13:19:55;;;;;;;;;47.00;34.50;;;;;5.19;100.00;102174.13;5036668;28;45459;-74
2022/12/17 13:22:20;;;;;;;;;43.75;30.75;;;;;5.11;100.00;102172.78;5052616;28;45533;-74
2022/12/17 13:24:49;;;;;;;;;49.00;28.00;;;;;5.05;100.00;102180.31;5056023;28;45612;-74
2022/12/17 13:27:33;;;;;;;;;55.50;38.50;;;;;4.96;100.00;102183.34;5027218;28;46861;-74
2022/12/17 13:30:16;;;;;;;;;53.75;37.75;;;;;4.90;100.00;102177.78;5052102;28;45961;-74
2022/12/17 13:33:20;;;;;;;;;49.75;34.75;;;;;4.87;100.00;102176.69;5057306;28;45238;-74
2022/12/17 13:36:03;;;;;;;;;52.00;36.50;;;;;4.77;100.00;102158.69;5039962;28;45228;-76
2022/12/17 13:38:47;;;;;;;;;37.50;32.00;;;;;4.80;100.00;102167.63;5057690;28;45821;-74
2022/12/17 13:41:16;;;;;;;;;34.50;26.00;;;;;4.80;100.00;102164.09;5035123;28;45613;-74
2022/12/17 13:43:55;;;;;;;;;48.50;31.00;;;;;4.80;100.00;102167.63;5038410;28;45534;-74
2022/12/17 13:46:28;;;;;;;;;48.00;34.75;;;;;4.77;100.00;102156.97;5050499;28;45443;-75
2022/12/17 13:49:02;;;;;;;;;43.75;37.50;;;;;4.78;100.00;102163.09;5057690;28;46858;-76
2022/12/17 13:51:30;;;;;;;;;34.00;32.75;;;;;4.79;100.00;102162.28;5039904;28;45521;-74
2022/12/17 13:54:00;;;;;;;;;37.25;29.25;;;;;4.78;100.00;102161.38;5058575;28;45462;-74
2022/12/17 13:56:29;;;;;;;;;37.75;30.75;;;;;4.72;100.00;102148.84;5058045;28;45329;-75
2022/12/17 13:58:56;;;;;;;;;46.25;37.00;;;;;4.71;100.00;102154.00;5036238;28;46247;-75
2022/12/17 14:01:22;;;;;;;;;46.00;29.00;;;;;4.70;100.00;102158.34;5037636;28;45359;-75
2022/12/17 14:03:53;;;;;;;;;42.75;30.75;;;;;4.69;100.00;102174.88;5020242;28;45340;-76
2022/12/17 14:06:19;;;;;;;;;33.25;31.75;;;;;4.68;100.00;102162.56;5040021;28;45608;-77
2022/12/17 14:08:46;;;;;;;;;39.25;30.75;;;;;4.69;100.00;102166.13;5018803;28;48680;-74
2022/12/17 14:13:55;;;;;;;;;45.50;33.75;;;;;4.70;100.00;102162.69;5037966;28;45590;-77
2022/12/17 14:16:21;;;;;;;;;40.50;29.00;;;;;4.69;100.00;102168.72;5039015;28;50879;-75
2022/12/17 14:18:54;;;;;;;;;36.50;25.75;;;;;4.69;100.00;102163.50;5039120;28;46147;-74
2022/12/17 14:21:21;;;;;;;;;46.00;36.75;;;;;4.68;100.00;102174.75;5017558;28;46135;-76
2022/12/17 14:23:48;;;;;;;;;31.00;19.25;;;;;4.66;100.00;102177.28;5038141;28;45257;-76
2022/12/17 14:26:13;;;;;;;;;39.50;25.75;;;;;4.67;100.00;102183.41;5038381;28;45529;-74
2022/12/17 14:28:50;;;;;;;;;38.50;33.25;;;;;4.66;100.00;102179.91;5056976;28;60469;-75
2022/12/17 14:31:23;;;;;;;;;38.75;25.75;;;;;4.65;100.00;102175.50;5057660;28;45399;-74
2022/12/17 14:34:09;;;;;;;;;41.00;29.50;;;;;4.62;100.00;102177.03;5055331;28;45344;-75
2022/12/17 14:36:37;;;;;;;;;31.50;25.50;;;;;4.62;100.00;102174.41;5057639;28;45614;-75
2022/12/17 14:39:27;;;;;;;;;35.75;26.00;;;;;4.62;100.00;102190.09;5039288;28;45529;-74
2022/12/17 14:44:49;;;;;;;;;39.00;25.50;;;;;4.58;100.00;102196.91;5040849;28;45494;-74
2022/12/17 14:47:19;;;;;;;;;34.50;29.75;;;;;4.56;100.00;102187.16;5036379;28;45537;-74
2022/12/17 14:49:52;;;;;;;;;36.00;32.00;;;;;4.52;100.00;102175.59;5037691;28;45836;-74
2022/12/17 14:52:25;;;;;;;;;42.50;33.25;;;;;4.52;100.00;102172.09;5057568;28;45542;-76
2022/12/17 14:54:50;;;;;;;;;25.75;20.50;;;;;4.47;100.00;102158.75;5031812;28;45465;-74
2022/12/17 14:57:20;;;;;;;;;28.25;26.50;;;;;4.50;100.00;102158.94;5038190;28;49378;-76
2022/12/17 14:59:46;;;;;;;;;28.50;24.25;;;;;4.48;100.00;102160.56;5039489;28;47473;-74
2022/12/17 15:02:26;;;;;;;;;42.00;27.75;;;;;4.42;100.00;102147.13;5038999;28;45428;-75
2022/12/17 15:04:56;;;;;;;;;33.25;28.25;;;;;4.41;100.00;102159.28;5014513;28;45488;-74
2022/12/17 15:07:26;;;;;;;;;33.50;28.75;;;;;4.39;100.00;102173.13;5037043;28;45486;-75
2022/12/17 15:09:53;;;;;;;;;41.50;28.25;;;;;4.36;100.00;102163.34;5057052;28;46084;-75
2022/12/17 15:12:20;;;;;;;;;38.00;29.00;;;;;4.33;100.00;102167.53;5039025;28;45345;-76
2022/12/17 15:14:45;;;;;;;;;43.00;28.50;;;;;4.31;100.00;102172.66;5028134;28;46468;-74
2022/12/17 15:17:11;;;;;;;;;38.75;31.25;;;;;4.28;100.00;102169.88;5048532;28;45541;-74
2022/12/17 15:19:37;;;;;;;;;39.75;29.00;;;;;4.25;100.00;102169.69;5047774;28;47313;-74
2022/12/17 15:22:03;;;;;;;;;33.50;26.25;;;;;4.19;100.00;102156.28;5028170;28;45577;-74
2022/12/17 15:24:29;;;;;;;;;36.75;30.50;;;;;4.18;100.00;102162.31;5008036;28;45600;-74
2022/12/17 15:26:54;;;;;;;;;34.50;27.75;;;;;4.15;100.00;102162.13;5027715;28;47772;-74
2022/12/17 15:29:20;;;;;;;;;41.50;32.75;;;;;4.10;100.00;102164.50;5043630;28;60730;-76
2022/12/17 15:31:45;;;;;;;;;40.75;29.50;;;;;4.05;100.00;102171.16;5053016;28;60798;-74
2022/12/17 15:34:11;;;;;;;;;40.25;31.75;;;;;3.99;100.00;102172.50;5033562;28;47772;-74
2022/12/17 15:36:37;;;;;;;;;39.25;32.25;;;;;3.98;100.00;102187.28;5052979;28;45304;-75
2022/12/17 15:39:05;;;;;;;;;38.50;22.75;;;;;3.93;100.00;102193.94;5056446;28;45998;-74
2022/12/17 15:44:14;;;;;;;;;35.25;25.00;;;;;3.85;100.00;102189.97;5040293;28;45466;-74
2022/12/17 15:46:39;;;;;;;;;30.50;23.50;;;;;3.80;100.00;102191.41;5056128;28;55775;-74
2022/12/17 15:49:04;;;;;;;;;30.50;24.25;;;;;3.78;100.00;102198.25;5055126;28;53956;-74
2022/12/17 15:51:30;;;;;;;;;35.50;25.25;;;;;3.74;100.00;102191.94;5056800;28;45464;-75
2022/12/17 15:53:55;;;;;;;;;34.75;28.00;;;;;3.72;100.00;102196.16;5034292;28;47030;-76
2022/12/17 15:56:23;;;;;;;;;38.00;28.00;;;;;3.73;100.00;102211.06;5049458;28;51830;-75
2022/12/17 15:58:49;;;;;;;;;34.75;25.00;;;;;3.65;100.00;102202.72;5023040;28;45907;-75
2022/12/17 16:01:15;;;;;;;;;28.25;23.00;;;;;3.62;100.00;102218.22;5035470;28;45564;-74
2022/12/17 16:03:40;;;;;;;;;39.50;23.50;;;;;3.62;100.00;102218.22;5055272;28;45308;-74
2022/12/17 16:06:06;;;;;;;;;38.25;28.00;;;;;3.57;100.00;102214.44;5037878;28;45358;-74
2022/12/17 16:08:31;;;;;;;;;30.00;19.25;;;;;3.57;100.00;102198.78;5034741;28;46839;-74
2022/12/17 16:10:57;;;;;;;;;30.75;24.00;;;;;3.53;100.00;102193.25;5053611;28;55425;-74
2022/12/17 16:13:22;;;;;;;;;30.50;26.50;;;;;3.50;100.00;102193.06;5054849;28;49843;-73
2022/12/17 16:15:57;;;;;;;;;17.25;17.00;;;;;3.45;100.00;102207.53;5055292;28;52053;-74
2022/12/17 16:18:22;;;;;;;;;29.75;22.75;;;;;3.44;100.00;102217.09;5055513;28;45892;-74
2022/12/17 16:20:48;;;;;;;;;31.75;24.50;;;;;3.40;100.00;102221.19;5055948;28;45474;-76
2022/12/17 16:23:14;;;;;;;;;26.00;19.75;;;;;3.40;100.00;102204.63;5032104;28;45530;-74
2022/12/17 16:25:39;;;;;;;;;24.25;19.00;;;;;3.37;100.00;102201.84;5037598;28;45511;-73
2022/12/17 16:28:04;;;;;;;;;30.75;20.50;;;;;3.36;100.00;102207.88;5036656;28;59895;-73
2022/12/17 16:30:30;;;;;;;;;28.00;19.25;;;;;3.32;100.00;102198.06;5054854;28;45540;-75
2022/12/17 16:32:58;;;;;;;;;24.75;18.75;;;;;3.32;100.00;102212.00;5040749;28;53448;-74
2022/12/17 16:35:24;;;;;;;;;26.25;19.75;;;;;3.33;100.00;102210.28;5040147;28;45517;-76
2022/12/17 16:37:50;;;;;;;;;23.00;19.25;;;;;3.31;100.00;102218.03;5028393;28;45819;-75
2022/12/17 16:40:15;;;;;;;;;26.75;21.25;;;;;3.31;100.00;102222.38;5043133;28;56231;-74
2022/12/17 16:42:40;;;;;;;;;30.00;19.25;;;;;3.31;100.00;102222.38;5043204;28;45779;-73
2022/12/17 16:45:06;;;;;;;;;21.00;19.25;;;;;3.25;100.00;102214.13;5045569;28;46167;-75
2022/12/17 16:47:32;;;;;;;;;28.75;24.00;;;;;3.27;100.00;102208.22;5025999;28;46453;-76
2022/12/17 16:49:57;;;;;;;;;32.00;23.00;;;;;3.25;100.00;102202.00;5024639;28;46079;-73
2022/12/17 16:52:22;;;;;;;;;33.50;23.00;;;;;3.23;100.00;102200.97;5027067;28;45515;-73
2022/12/17 16:54:48;;;;;;;;;32.50;23.75;;;;;3.22;100.00;102193.06;5045367;28;45483;-74
2022/12/17 16:57:13;;;;;;;;;31.00;24.00;;;;;3.19;100.00;102193.75;5009751;28;48584;-77
2022/12/17 16:59:39;;;;;;;;;27.75;21.50;;;;;3.17;100.00;102191.88;5027292;28;45513;-74
2022/12/17 17:02:04;;;;;;;;;26.25;19.00;;;;;3.17;100.00;102191.88;5045376;28;49364;-74
2022/12/17 17:04:29;;;;;;;;;19.00;14.50;;;;;3.13;100.00;102196.88;5046600;28;45977;-74
2022/12/17 17:06:56;;;;;;;;;14.00;10.75;;;;;3.15;100.00;102208.34;5025096;28;48194;-74
2022/12/17 17:09:22;;;;;;;;;21.50;15.75;;;;;3.18;100.00;102212.84;5044474;28;45642;-73
2022/12/17 17:11:48;;;;;;;;;23.50;15.25;;;;;3.14;100.00;102192.56;5027083;28;46204;-76
2022/12/17 17:14:13;;;;;;;;;33.75;23.25;;;;;3.15;100.00;102197.91;5019756;28;45570;-76
2022/12/17 17:16:39;;;;;;;;;32.00;27.75;;;;;3.12;100.00;102191.59;5046592;28;46505;-76
2022/12/17 17:19:05;;;;;;;;;35.25;30.25;;;;;3.12;100.00;102197.69;5027703;28;45561;-76
2022/12/17 17:21:38;;;;;;;;;47.00;34.50;;;;;3.05;100.00;102198.13;5024144;28;45482;-76
2022/12/17 17:24:10;;;;;;;;;48.75;31.25;;;;;3.10;100.00;102201.94;5044715;28;45676;-74
2022/12/17 17:26:36;;;;;;;;;56.00;44.75;;;;;3.08;100.00;102194.78;5027627;28;47528;-74
2022/12/17 17:29:02;;;;;;;;;39.75;33.25;;;;;3.04;100.00;102200.66;5028710;28;45427;-74
2022/12/17 17:31:28;;;;;;;;;48.00;37.00;;;;;3.02;100.00;102212.69;5045823;28;45559;-75
2022/12/17 17:36:46;;;;;;;;;49.50;34.00;;;;;2.91;100.00;102222.44;5170246;22;45615;-73
2022/12/17 17:39:12;;;;;;;;;49.00;42.00;;;;;2.94;100.00;102219.13;5036769;28;45490;-71
2022/12/17 17:41:38;;;;;;;;;45.25;39.00;;;;;2.88;100.00;102215.31;5042006;28;46640;-71
2022/12/17 17:44:09;;;;;;;;;40.75;40.25;;;;;2.88;100.00;102219.66;5043898;28;45692;-74
2022/12/17 17:46:34;;;;;;;;;67.50;44.25;;;;;2.91;100.00;102221.53;5027802;28;45904;-73
2022/12/17 17:49:02;;;;;;;;;55.75;47.00;;;;;2.86;100.00;102218.63;5045858;28;45505;-72
2022/12/17 17:51:31;;;;;;;;;53.00;41.00;;;;;2.85;100.00;102204.69;5025067;28;45537;-73
2022/12/17 17:53:56;;;;;;;;;67.75;47.00;;;;;2.87;100.00;102215.22;5037467;28;45588;-73
2022/12/17 17:56:24;;;;;;;;;50.75;37.25;;;;;2.82;100.00;102206.19;5041896;28;46835;-74
2022/12/17 17:59:01;;;;;;;;;52.75;43.50;;;;;2.79;100.00;102199.06;5047622;28;45406;-71
2022/12/17 18:01:29;;;;;;;;;47.75;39.50;;;;;2.84;100.00;102207.19;5050508;28;45515;-74
2022/12/17 18:03:57;;;;;;;;;60.50;43.00;;;;;2.81;100.00;102201.78;5045556;28;45856;-73
2022/12/17 18:06:22;;;;;;;;;52.25;38.50;;;;;2.78;100.00;102202.50;5046649;28;45852;-72
2022/12/17 18:08:48;;;;;;;;;54.75;39.75;;;;;2.73;100.00;102188.25;5043762;28;54109;-73
2022/12/17 18:11:16;;;;;;;;;49.25;40.25;;;;;2.81;100.00;102192.25;5046397;28;58950;-70
2022/12/17 18:13:53;;;;;;;;;48.00;39.25;;;;;2.75;100.00;102191.84;5029445;28;45549;-75
2022/12/17 18:16:20;;;;;;;;;55.50;36.00;;;;;2.75;100.00;102181.41;5048098;28;45622;-71
2022/12/17 18:18:45;;;;;;;;;60.00;43.50;;;;;2.73;100.00;102185.66;5049011;28;46556;-70
2022/12/17 18:21:14;;;;;;;;;51.25;36.25;;;;;2.77;100.00;102204.97;5050226;28;52861;-70
2022/12/17 18:23:40;;;;;;;;;44.75;34.75;;;;;2.78;100.00;102209.41;5032196;28;45599;-71
2022/12/17 18:26:10;;;;;;;;;47.50;34.50;;;;;2.78;100.00;102206.81;5049867;28;46562;-71
2022/12/17 18:28:36;;;;;;;;;49.25;31.00;;;;;2.77;100.00;102204.97;5048066;28;45825;-72
2022/12/17 18:31:06;;;;;;;;;40.25;32.00;;;;;2.70;100.00;102193.25;5048369;28;45859;-73
2022/12/17 18:33:32;;;;;;;;;36.75;24.75;;;;;2.76;100.00;102201.47;5049643;28;45502;-71
2022/12/17 18:35:57;;;;;;;;;44.00;34.25;;;;;2.75;100.00;102211.81;5048739;28;46346;-71
2022/12/17 18:38:23;;;;;;;;;45.25;34.50;;;;;2.70;100.00;102213.22;5046979;28;51886;-71
2022/12/17 18:40:48;;;;;;;;;48.25;33.00;;;;;2.71;100.00;102222.84;5049639;28;55425;-71
2022/12/17 18:43:22;;;;;;;;;49.00;34.75;;;;;2.68;100.00;102226.19;5045743;28;54413;-72
2022/12/17 18:45:48;;;;;;;;;38.25;28.50;;;;;2.71;100.00;102234.19;5038995;28;46615;-72
2022/12/17 18:48:13;;;;;;;;;35.75;29.50;;;;;2.69;100.00;102222.75;5038959;28;46104;-70
2022/12/17 18:50:38;;;;;;;;;47.50;38.00;;;;;2.68;100.00;102234.00;5039628;28;59675;-71
2022/12/17 18:53:04;;;;;;;;;48.25;39.75;;;;;2.69;100.00;102240.13;5044772;28;52549;-72
2022/12/17 18:55:29;;;;;;;;;52.00;38.00;;;;;2.68;100.00;102246.13;5046454;28;65121;-74
2022/12/17 18:57:54;;;;;;;;;53.25;40.00;;;;;2.61;100.00;102234.41;5044159;28;56736;-72
2022/12/17 19:00:20;;;;;;;;;55.50;44.00;;;;;2.64;100.00;102247.63;5045283;28;52762;-72
2022/12/17 19:02:45;;;;;;;;;62.00;47.00;;;;;2.60;100.00;102240.41;5041360;28;45765;-73
2022/12/17 19:05:10;;;;;;;;;49.25;43.25;;;;;2.60;100.00;102240.41;5039341;28;54269;-73
2022/12/17 19:07:36;;;;;;;;;67.50;43.75;;;;;2.56;100.00;102238.41;5041588;28;60077;-73
2022/12/17 19:10:01;;;;;;;;;56.75;47.00;;;;;2.57;100.00;102235.91;5048305;28;45542;-72
2022/12/17 19:12:26;;;;;;;;;53.50;44.50;;;;;2.55;100.00;102242.69;5052908;28;52284;-72
2022/12/17 19:14:52;;;;;;;;;52.75;41.25;;;;;2.54;100.00;102237.41;5051676;28;47052;-70
2022/12/17 19:17:17;;;;;;;;;43.50;33.00;;;;;2.53;100.00;102238.19;5044865;28;63763;-70
2022/12/17 19:19:42;;;;;;;;;43.00;31.50;;;;;2.46;100.00;102236.91;5049138;28;45430;-70
2022/12/17 19:22:08;;;;;;;;;43.25;39.00;;;;;2.47;100.00;102240.41;5049793;28;53670;-71
2022/12/17 19:24:33;;;;;;;;;44.75;38.00;;;;;2.50;100.00;102251.91;5053216;28;59989;-71
2022/12/17 19:26:58;;;;;;;;;47.00;36.25;;;;;2.47;100.00;102241.31;5053458;28;57965;-71
2022/12/17 19:29:24;;;;;;;;;47.00;42.25;;;;;2.46;100.00;102238.63;5049911;28;50519;-71
2022/12/17 19:31:49;;;;;;;;;46.00;34.75;;;;;2.46;100.00;102236.91;5053721;28;45474;-70
2022/12/17 19:34:16;;;;;;;;;46.50;32.50;;;;;2.46;100.00;102239.50;5051021;28;61583;-70
2022/12/17 19:36:41;;;;;;;;;49.00;37.50;;;;;2.51;100.00;102245.94;5044078;28;46002;-70
2022/12/17 19:39:11;;;;;;;;;52.25;42.00;;;;;2.47;100.00;102227.38;5043175;28;45370;-71
2022/12/17 19:41:37;;;;;;;;;55.75;42.75;;;;;2.45;100.00;102221.13;5047907;28;46941;-70
2022/12/17 19:44:04;;;;;;;;;46.75;42.75;;;;;2.44;100.00;102217.63;5054414;28;45526;-71
2022/12/17 19:46:31;;;;;;;;;50.50;37.50;;;;;2.43;100.00;102223.66;5055551;28;45548;-72
2022/12/17 19:48:56;;;;;;;;;45.75;38.00;;;;;2.42;100.00;102229.69;5054331;28;45465;-71
2022/12/17 19:51:24;;;;;;;;;61.50;44.50;;;;;2.41;100.00;102229.59;5038379;28;45385;-71
2022/12/17 19:53:50;;;;;;;;;55.75;40.50;;;;;2.40;100.00;102235.56;5056225;28;45418;-70
2022/12/17 19:56:20;;;;;;;;;49.50;42.25;;;;;2.39;100.00;102239.88;5051881;28;45717;-72
2022/12/17 19:58:51;;;;;;;;;47.00;33.75;;;;;2.39;100.00;102232.06;5045457;28;45368;-71
2022/12/17 20:01:19;;;;;;;;;45.25;40.75;;;;;2.40;100.00;102244.31;5046115;28;45718;-72
2022/12/17 20:03:46;;;;;;;;;56.75;43.25;;;;;2.45;100.00;102266.38;5051956;28;46193;-70
2022/12/17 20:06:13;;;;;;;;;66.25;44.75;;;;;2.46;100.00;102267.28;5043974;28;45708;-72
2022/12/17 20:08:39;;;;;;;;;53.25;36.75;;;;;2.45;100.00;102263.78;5039183;28;45423;-71
2022/12/17 20:11:31;;;;;;;;;56.00;43.75;;;;;2.47;100.00;102269.97;5042143;28;46880;-70
2022/12/17 20:13:56;;;;;;;;;54.00;42.25;;;;;2.48;100.00;102276.09;5053481;28;45439;-70
2022/12/17 20:16:22;;;;;;;;;54.25;41.25;;;;;2.47;100.00;102269.09;5055263;28;45296;-70
2022/12/17 20:18:47;;;;;;;;;63.25;43.25;;;;;2.48;100.00;102276.09;5043338;28;45777;-70
2022/12/17 20:21:12;;;;;;;;;37.25;32.50;;;;;2.46;100.00;102278.63;5042121;28;45646;-70
2022/12/17 20:23:38;;;;;;;;;29.75;27.00;;;;;2.44;100.00;102277.59;5049259;28;63083;-70
2022/12/17 20:26:05;;;;;;;;;46.25;39.50;;;;;2.43;100.00;102275.78;5051206;28;46416;-69
2022/12/17 20:28:30;;;;;;;;;54.00;33.00;;;;;2.38;100.00;102279.78;5054096;28;45593;-70
2022/12/17 20:30:56;;;;;;;;;53.50;33.00;;;;;2.46;100.00;102286.44;5030712;28;46233;-70
2022/12/17 20:33:21;;;;;;;;;49.00;38.00;;;;;2.45;100.00;102282.03;5053080;28;64007;-72
2022/12/17 20:35:46;;;;;;;;;46.50;39.00;;;;;2.46;100.00;102281.22;5051679;28;61423;-70
2022/12/17 20:38:12;;;;;;;;;39.00;31.25;;;;;2.40;100.00;102261.63;5050122;28;54916;-71
2022/12/17 20:40:38;;;;;;;;;50.75;41.00;;;;;2.42;100.00;102270.47;5053313;28;53658;-71
2022/12/17 20:43:04;;;;;;;;;51.25;36.00;;;;;2.39;100.00;102265.94;5054618;28;46420;-71
2022/12/17 20:45:29;;;;;;;;;50.50;37.00;;;;;2.45;100.00;102279.41;5053586;28;58368;-72
2022/12/17 20:47:54;;;;;;;;;39.00;33.00;;;;;2.39;100.00;102271.16;5052793;28;46537;-71
2022/12/17 20:50:20;;;;;;;;;30.75;25.00;;;;;2.44;100.00;102280.19;5048510;28;53887;-70
2022/12/17 20:52:45;;;;;;;;;36.25;29.75;;;;;2.46;100.00;102293.34;5041124;28;46537;-70
2022/12/17 20:55:10;;;;;;;;;32.50;28.25;;;;;2.48;100.00;102296.94;5048884;28;57918;-70
2022/12/17 20:57:36;;;;;;;;;38.00;34.50;;;;;2.48;100.00;102294.34;5029916;28;45538;-73
2022/12/17 21:00:01;;;;;;;;;47.50;32.50;;;;;2.46;100.00;102285.53;5045738;28;47709;-73
2022/12/17 21:02:26;;;;;;;;;39.25;32.00;;;;;2.52;100.00;102285.94;5043188;28;46443;-70
2022/12/17 21:04:52;;;;;;;;;41.00;30.50;;;;;2.49;100.00;102289.22;5046413;28;49693;-70
2022/12/17 21:07:17;;;;;;;;;40.25;33.50;;;;;2.49;100.00;102278.78;5046534;28;55719;-70
2022/12/17 21:09:42;;;;;;;;;39.00;27.50;;;;;2.51;100.00;102292.84;5048813;28;53847;-72
2022/12/17 21:12:08;;;;;;;;;41.75;36.00;;;;;2.57;100.00;102297.56;5047994;28;46363;-74
2022/12/17 21:14:33;;;;;;;;;32.00;30.25;;;;;2.52;100.00;102278.13;5045926;28;45517;-73
2022/12/17 21:16:59;;;;;;;;;42.00;36.50;;;;;2.56;100.00;102282.75;5041717;28;54549;-71
2022/12/17 21:19:26;;;;;;;;;39.25;31.00;;;;;2.57;100.00;102285.44;5051626;28;45613;-71
2022/12/17 21:21:51;;;;;;;;;44.75;34.50;;;;;2.62;100.00;102291.88;5052379;28;45706;-71
2022/12/17 21:24:17;;;;;;;;;34.75;30.25;;;;;2.60;100.00;102280.41;5054701;28;47671;-71
2022/12/17 21:26:44;;;;;;;;;47.50;37.25;;;;;2.67;100.00;102270.41;5054361;28;45429;-71
2022/12/17 21:29:10;;;;;;;;;44.00;36.75;;;;;2.68;100.00;102272.22;5055152;28;45492;-71
2022/12/17 21:31:39;;;;;;;;;40.25;36.00;;;;;2.68;100.00;102270.50;5050839;28;46515;-71
2022/12/17 21:34:06;;;;;;;;;37.50;31.25;;;;;2.63;100.00;102262.38;5041482;28;45381;-72
2022/12/17 21:36:32;;;;;;;;;35.75;28.50;;;;;2.63;100.00;102259.75;5050129;28;45286;-72
2022/12/17 21:38:58;;;;;;;;;51.75;40.25;;;;;2.63;100.00;102267.59;5053396;28;45519;-70
2022/12/17 21:41:27;;;;;;;;;33.50;23.00;;;;;2.59;100.00;102257.75;5049423;28;46618;-70
2022/12/17 21:43:54;;;;;;;;;42.00;29.25;;;;;2.63;100.00;102262.38;5053590;28;45610;-73
2022/12/17 21:46:20;;;;;;;;;38.75;34.75;;;;;2.62;100.00;102262.28;5052215;28;45407;-70
2022/12/17 21:48:45;;;;;;;;;44.50;34.00;;;;;2.61;100.00;102260.47;5056408;28;45689;-70
2022/12/17 21:51:11;;;;;;;;;33.00;26.50;;;;;2.54;100.00;102238.28;5048871;28;57897;-73
2022/12/17 21:53:40;;;;;;;;;47.75;38.25;;;;;2.57;100.00;102245.44;5056277;28;45626;-73
2022/12/17 21:56:09;;;;;;;;;41.50;33.25;;;;;2.55;100.00;102234.88;5058108;28;45303;-71
2022/12/17 21:58:35;;;;;;;;;45.50;29.75;;;;;2.55;100.00;102237.47;5025839;28;45553;-70
2022/12/17 22:01:15;;;;;;;;;39.75;30.25;;;;;2.60;100.00;102235.19;5056698;28;60335;-73
2022/12/17 22:03:41;;;;;;;;;45.50;28.75;;;;;2.57;100.00;102235.00;5058850;28;45335;-73
2022/12/17 22:06:08;;;;;;;;;39.25;31.00;;;;;2.61;100.00;102235.31;5058444;28;45586;-71
2022/12/17 22:08:34;;;;;;;;;43.25;33.75;;;;;2.62;100.00;102233.59;5057985;28;45536;-70
2022/12/17 22:11:00;;;;;;;;;37.25;24.75;;;;;2.61;100.00;102232.69;5057712;28;46621;-71
2022/12/17 22:16:09;;;;;;;;;34.50;28.25;;;;;2.57;100.00;102227.19;5055570;28;45453;-70
2022/12/17 22:18:34;;;;;;;;;47.50;35.75;;;;;2.58;100.00;102232.47;5055485;28;56883;-71
2022/12/17 22:21:00;;;;;;;;;47.50;37.50;;;;;2.53;100.00;102230.38;5057565;28;63669;-73
2022/12/17 22:23:26;;;;;;;;;41.00;34.50;;;;;2.58;100.00;102237.69;5058705;28;45343;-71
2022/12/17 22:25:51;;;;;;;;;45.00;31.00;;;;;2.52;100.00;102226.88;5054225;28;45286;-70
2022/12/17 22:28:17;;;;;;;;;38.75;31.25;;;;;2.57;100.00;102235.00;5055456;28;45307;-71
2022/12/17 22:33:33;;;;;;;;;31.50;28.50;;;;;2.52;100.00;102239.00;5033872;28;45603;-72
2022/12/17 22:36:03;;;;;;;;;36.25;21.00;;;;;2.49;100.00;102237.09;5055323;28;45565;-72
2022/12/17 22:38:28;;;;;;;;;37.25;28.75;;;;;2.44;100.00;102233.28;5057636;28;47082;-73
2022/12/17 22:40:54;;;;;;;;;39.25;31.75;;;;;2.45;100.00;102240.31;5056347;28;45416;-71
2022/12/17 22:43:31;;;;;;;;;49.00;34.50;;;;;2.37;100.00;102212.81;5055899;28;45522;-70
2022/12/17 22:46:02;;;;;;;;;32.25;28.00;;;;;2.40;100.00;102222.53;5055955;28;45474;-71
2022/12/17 22:48:29;;;;;;;;;40.25;29.25;;;;;2.35;100.00;102220.56;5053688;28;45596;-72
2022/12/17 22:50:55;;;;;;;;;47.75;31.25;;;;;2.32;100.00;102215.13;5054003;28;45529;-71
2022/12/17 22:53:21;;;;;;;;;46.75;32.75;;;;;2.26;100.00;102211.22;5032084;28;45451;-73
2022/12/17 22:55:47;;;;;;;;;38.00;30.50;;;;;2.30;100.00;102224.56;5047403;28;45423;-70
2022/12/17 22:58:12;;;;;;;;;36.00;28.00;;;;;2.24;100.00;102212.84;5046284;28;45491;-70
2022/12/17 23:00:38;;;;;;;;;38.25;29.50;;;;;2.22;100.00;102217.00;5050718;28;61431;-71
2022/12/17 23:03:03;;;;;;;;;26.75;22.75;;;;;2.20;100.00;102206.50;5047900;28;45328;-72
2022/12/17 23:05:29;;;;;;;;;37.50;26.75;;;;;2.22;100.00;102217.00;5048220;28;46390;-73
2022/12/17 23:07:56;;;;;;;;;35.25;31.75;;;;;2.18;100.00;102208.09;5047268;28;45322;-71
2022/12/17 23:10:22;;;;;;;;;33.00;26.50;;;;;2.14;100.00;102181.75;5052142;28;46709;-72
2022/12/17 23:12:50;;;;;;;;;30.25;22.75;;;;;2.17;100.00;102213.19;5051007;28;46818;-71
2022/12/17 23:15:21;;;;;;;;;38.50;31.75;;;;;2.12;100.00;102204.16;5051290;28;45583;-71
2022/12/17 23:17:46;;;;;;;;;45.50;29.50;;;;;2.13;100.00;102204.28;5053654;28;45558;-71
2022/12/17 23:20:12;;;;;;;;;35.25;27.50;;;;;2.15;100.00;102196.56;5048105;28;62261;-71
2022/12/17 23:22:38;;;;;;;;;38.00;32.00;;;;;2.13;100.00;102196.47;5047929;28;45473;-71
2022/12/17 23:25:04;;;;;;;;;32.75;26.00;;;;;2.13;100.00;102199.09;5046163;28;46153;-70
2022/12/17 23:27:30;;;;;;;;;37.75;30.25;;;;;2.07;100.00;102198.66;5048214;28;45336;-74
2022/12/17 23:29:55;;;;;;;;;32.00;26.75;;;;;2.02;100.00;102190.53;5050169;28;46882;-71
2022/12/17 23:32:21;;;;;;;;;34.25;24.75;;;;;2.01;100.00;102196.53;5047968;28;61554;-72
2022/12/17 23:34:46;;;;;;;;;20.50;13.75;;;;;2.04;100.00;102212.38;5051496;28;47827;-71
2022/12/17 23:37:11;;;;;;;;;34.75;30.00;;;;;1.98;100.00;102200.66;5052043;28;45586;-71
2022/12/17 23:39:37;;;;;;;;;35.25;29.00;;;;;1.97;100.00;102202.38;5051074;28;46226;-73
2022/12/17 23:42:02;;;;;;;;;40.50;31.75;;;;;2.01;100.00;102213.88;5055522;28;47033;-73
2022/12/17 23:44:27;;;;;;;;;44.00;27.50;;;;;1.96;100.00;102207.44;5054508;28;48652;-71
2022/12/17 23:46:53;;;;;;;;;54.25;33.00;;;;;2.00;100.00;102215.56;5055307;28;56212;-71
2022/12/17 23:49:18;;;;;;;;;41.00;34.50;;;;;1.95;100.00;102205.66;5056043;28;46475;-71
2022/12/17 23:51:43;;;;;;;;;35.00;27.75;;;;;1.96;100.00;102207.44;5053325;28;57963;-71
2022/12/17 23:54:09;;;;;;;;;32.75;25.25;;;;;1.92;100.00;102202.81;5054433;28;53929;-71
2022/12/17 23:56:35;;;;;;;;;34.00;25.50;;;;;1.93;100.00;102208.16;5050432;28;45541;-71
2022/12/17 23:59:01;;;;;;;;;49.25;31.25;;;;;1.87;100.00;102205.13;5055989;28;46410;-71
